sensor_id;sensor_type;location;lat;lon;timestamp;pressure;altitude;pressure_sealevel;temperature;humidity
30636;BME280;17400;52.392;9.750;2023-04-01T00:02:03;98833.88;;;11.23;100.00
30636;BME280;17400;52.392;9.750;2023-04-01T00:04:31;98840.69;;;11.25;100.00
30636;BME280;17400;52.392;9.750;2023-04-01T00:06:59;98841.50;;;11.26;100.00
30636;BME280;17400;52.392;9.750;2023-04-01T00:09:29;98839.78;;;11.20;100.00
30636;BME280;17400;52.392;9.750;2023-04-01T00:11:57;98844.38;;;11.19;100.00
30636;BME280;17400;52.392;9.750;2023-04-01T00:14:24;98843.56;;;11.19;100.00
30636;BME280;17400;52.392;9.750;2023-04-01T00:16:52;98837.09;;;11.20;100.00
30636;BME280;17400;52.392;9.750;2023-04-01T00:19:20;98840.59;;;11.20;100.00
30636;BME280;17400;52.392;9.750;2023-04-01T00:21:47;98838.50;;;11.22;100.00
30636;BME280;17400;52.392;9.750;2023-04-01T00:24:16;98843.56;;;11.19;100.00
30636;BME280;17400;52.392;9.750;2023-04-01T00:26:45;98842.25;;;11.21;100.00
30636;BME280;17400;52.392;9.750;2023-04-01T00:29:14;98840.53;;;11.15;100.00
30636;BME280;17400;52.392;9.750;2023-04-01T00:31:42;98846.19;;;11.13;100.00
30636;BME280;17400;52.392;9.750;2023-04-01T00:34:10;98843.56;;;11.19;100.00
30636;BME280;17400;52.392;9.750;2023-04-01T00:36:37;98843.81;;;11.17;100.00
30636;BME280;17400;52.392;9.750;2023-04-01T00:39:05;98839.47;;;11.16;100.00
30636;BME280;17400;52.392;9.750;2023-04-01T00:41:33;98842.44;;;11.14;100.00
30636;BME280;17400;52.392;9.750;2023-04-01T00:44:20;98849.50;;;11.15;100.00
30636;BME280;17400;52.392;9.750;2023-04-01T00:46:48;98842.97;;;11.16;100.00
30636;BME280;17400;52.392;9.750;2023-04-01T00:49:18;98834.28;;;11.14;100.00
30636;BME280;17400;52.392;9.750;2023-04-01T00:51:49;98835.94;;;11.15;100.00
30636;BME280;17400;52.392;9.750;2023-04-01T00:54:18;98837.25;;;11.13;100.00
30636;BME280;17400;52.392;9.750;2023-04-01T00:56:50;98840.78;;;11.13;100.00
30636;BME280;17400;52.392;9.750;2023-04-01T00:59:25;98839.38;;;11.11;100.00
30636;BME280;17400;52.392;9.750;2023-04-01T01:01:53;98846.84;;;11.04;100.00
30636;BME280;17400;52.392;9.750;2023-04-01T01:04:23;98843.41;;;11.08;100.00
30636;BME280;17400;52.392;9.750;2023-04-01T01:06:58;98855.88;;;11.09;100.00
30636;BME280;17400;52.392;9.750;2023-04-01T01:09:38;98847.50;;;11.11;100.00
30636;BME280;17400;52.392;9.750;2023-04-01T01:12:13;98852.59;;;11.07;100.00
30636;BME280;17400;52.392;9.750;2023-04-01T01:15:02;98854.81;;;10.93;100.00
30636;BME280;17400;52.392;9.750;2023-04-01T01:17:44;98851.19;;;10.88;100.00
30636;BME280;17400;52.392;9.750;2023-04-01T01:20:41;98851.19;;;10.88;100.00
30636;BME280;17400;52.392;9.750;2023-04-01T01:23:40;98851.50;;;10.91;100.00
30636;BME280;17400;52.392;9.750;2023-04-01T01:26:28;98844.69;;;10.89;100.00
30636;BME280;17400;52.392;9.750;2023-04-01T01:29:05;98847.03;;;10.97;100.00
30636;BME280;17400;52.392;9.750;2023-04-01T01:31:44;98846.03;;;11.03;100.00
30636;BME280;17400;52.392;9.750;2023-04-01T01:34:19;98846.03;;;11.03;100.00
30636;BME280;17400;52.392;9.750;2023-04-01T01:36:55;98844.31;;;10.97;100.00
30636;BME280;17400;52.392;9.750;2023-04-01T01:39:28;98851.13;;;10.99;100.00
30636;BME280;17400;52.392;9.750;2023-04-01T01:42:01;98846.28;;;11.02;100.00
30636;BME280;17400;52.392;9.750;2023-04-01T01:44:32;98838.41;;;11.00;100.00
30636;BME280;17400;52.392;9.750;2023-04-01T01:47:01;98841.09;;;11.00;100.00
30636;BME280;17400;52.392;9.750;2023-04-01T01:49:31;98843.09;;;11.05;100.00
30636;BME280;17400;52.392;9.750;2023-04-01T01:52:01;98846.09;;;11.08;100.00
30636;BME280;17400;52.392;9.750;2023-04-01T01:54:30;98843.09;;;11.05;100.00
30636;BME280;17400;52.392;9.750;2023-04-01T01:57:03;98843.41;;;11.08;100.00
30636;BME280;17400;52.392;9.750;2023-04-01T01:59:33;98844.53;;;11.12;100.00
30636;BME280;17400;52.392;9.750;2023-04-01T02:02:02;98851.28;;;11.10;100.00
30636;BME280;17400;52.392;9.750;2023-04-01T02:04:34;98848.34;;;11.11;100.00
30636;BME280;17400;52.392;9.750;2023-04-01T02:07:07;98854.22;;;11.08;100.00
30636;BME280;17400;52.392;9.750;2023-04-01T02:09:38;98851.84;;;11.12;100.00
30636;BME280;17400;52.392;9.750;2023-04-01T02:12:07;98851.59;;;11.13;100.00
30636;BME280;17400;52.392;9.750;2023-04-01T02:14:39;98846.19;;;11.13;100.00
30636;BME280;17400;52.392;9.750;2023-04-01T02:17:11;98844.53;;;11.12;100.00
30636;BME280;17400;52.392;9.750;2023-04-01T02:19:45;98841.63;;;11.14;100.00
30636;BME280;17400;52.392;9.750;2023-04-01T02:22:18;98842.16;;;11.16;100.00
30636;BME280;17400;52.392;9.750;2023-04-01T02:24:48;98842.69;;;11.13;100.00
30636;BME280;17400;52.392;9.750;2023-04-01T02:27:17;98850.81;;;11.13;100.00
30636;BME280;17400;52.392;9.750;2023-04-01T02:29:45;98846.19;;;11.13;100.00
30636;BME280;17400;52.392;9.750;2023-04-01T02:32:14;98843.75;;;11.12;100.00
30636;BME280;17400;52.392;9.750;2023-04-01T02:34:42;98849.66;;;11.09;100.00
30636;BME280;17400;52.392;9.750;2023-04-01T02:37:11;98846.44;;;10.95;100.00
30636;BME280;17400;52.392;9.750;2023-04-01T02:39:40;98849.72;;;10.97;100.00
30636;BME280;17400;52.392;9.750;2023-04-01T02:42:09;98847.13;;;11.02;100.00
30636;BME280;17400;52.392;9.750;2023-04-01T02:44:37;98850.03;;;11.00;100.00
30636;BME280;17400;52.392;9.750;2023-04-01T02:47:04;98845.72;;;10.99;100.00
30636;BME280;17400;52.392;9.750;2023-04-01T02:49:32;98855.72;;;10.99;100.00
30636;BME280;17400;52.392;9.750;2023-04-01T02:52:00;98866.53;;;10.99;100.00
30636;BME280;17400;52.392;9.750;2023-04-01T02:54:27;98855.97;;;10.97;100.00
30636;BME280;17400;52.392;9.750;2023-04-01T02:56:57;98857.94;;;11.02;100.00
30636;BME280;17400;52.392;9.750;2023-04-01T02:59:24;98857.19;;;11.07;100.00
30636;BME280;17400;52.392;9.750;2023-04-01T03:01:52;98862.28;;;11.03;100.00
30636;BME280;17400;52.392;9.750;2023-04-01T03:04:20;98862.59;;;11.07;100.00
30636;BME280;17400;52.392;9.750;2023-04-01T03:06:48;98859.81;;;11.02;100.00
30636;BME280;17400;52.392;9.750;2023-04-01T03:09:16;98865.56;;;11.05;100.00
30636;BME280;17400;52.392;9.750;2023-04-01T03:11:43;98866.38;;;11.06;100.00
30636;BME280;17400;52.392;9.750;2023-04-01T03:14:12;98863.41;;;11.07;100.00
30636;BME280;17400;52.392;9.750;2023-04-01T03:16:40;98861.53;;;11.08;100.00
30636;BME280;17400;52.392;9.750;2023-04-01T03:19:08;98861.78;;;11.06;100.00
30636;BME280;17400;52.392;9.750;2023-04-01T03:21:35;98865.56;;;11.05;100.00
30636;BME280;17400;52.392;9.750;2023-04-01T03:24:04;98866.38;;;11.06;100.00
30636;BME280;17400;52.392;9.750;2023-04-01T03:26:32;98864.00;;;11.09;100.00
30636;BME280;17400;52.392;9.750;2023-04-01T03:29:00;98866.72;;;11.09;100.00
30636;BME280;17400;52.392;9.750;2023-04-01T03:31:29;98865.06;;;11.08;100.00
30636;BME280;17400;52.392;9.750;2023-04-01T03:33:58;98863.41;;;11.07;100.00
30636;BME280;17400;52.392;9.750;2023-04-01T03:36:26;98857.69;;;11.04;100.00
30636;BME280;17400;52.392;9.750;2023-04-01T03:38:53;98860.66;;;11.02;100.00
30636;BME280;17400;52.392;9.750;2023-04-01T03:41:21;98873.34;;;11.02;100.00
30636;BME280;17400;52.392;9.750;2023-04-01T03:43:49;98872.03;;;11.04;100.00
30636;BME280;17400;52.392;9.750;2023-04-01T03:46:17;98868.78;;;11.02;100.00
30636;BME280;17400;52.392;9.750;2023-04-01T03:48:47;98877.72;;;11.03;100.00
30636;BME280;17400;52.392;9.750;2023-04-01T03:51:15;98876.41;;;11.05;100.00
30636;BME280;17400;52.392;9.750;2023-04-01T03:53:43;98880.25;;;11.09;100.00
30636;BME280;17400;52.392;9.750;2023-04-01T03:56:11;98878.50;;;11.03;100.00
30636;BME280;17400;52.392;9.750;2023-04-01T03:58:39;98875.72;;;10.98;100.00
30636;BME280;17400;52.392;9.750;2023-04-01T04:01:14;98877.19;;;10.89;100.00
30636;BME280;17400;52.392;9.750;2023-04-01T04:03:42;98880.72;;;10.89;100.00
30636;BME280;17400;52.392;9.750;2023-04-01T04:06:13;98876.72;;;10.92;100.00
30636;BME280;17400;52.392;9.750;2023-04-01T04:08:41;98881.63;;;10.95;100.00
30636;BME280;17400;52.392;9.750;2023-04-01T04:11:09;98882.69;;;10.94;100.00
30636;BME280;17400;52.392;9.750;2023-04-01T04:13:36;98886.50;;;10.93;100.00
30636;BME280;17400;52.392;9.750;2023-04-01T04:16:04;98885.09;;;10.90;100.00
30636;BME280;17400;52.392;9.750;2023-04-01T04:18:32;98876.72;;;10.92;100.00
30636;BME280;17400;52.392;9.750;2023-04-01T04:21:00;98884.25;;;10.90;100.00
30636;BME280;17400;52.392;9.750;2023-04-01T04:23:29;98882.38;;;10.90;100.00
30636;BME280;17400;52.392;9.750;2023-04-01T04:26:00;98891.81;;;10.88;100.00
30636;BME280;17400;52.392;9.750;2023-04-01T04:28:28;98893.13;;;10.85;100.00
30636;BME280;17400;52.392;9.750;2023-04-01T04:30:56;98880.72;;;10.89;100.00
30636;BME280;17400;52.392;9.750;2023-04-01T04:33:25;98888.25;;;10.87;100.00
30636;BME280;17400;52.392;9.750;2023-04-01T04:35:55;98890.97;;;10.87;100.00
30636;BME280;17400;52.392;9.750;2023-04-01T04:38:23;98894.53;;;10.88;100.00
30636;BME280;17400;52.392;9.750;2023-04-01T04:40:53;98897.22;;;10.88;100.00
30636;BME280;17400;52.392;9.750;2023-04-01T04:43:21;98899.94;;;10.88;100.00
30636;BME280;17400;52.392;9.750;2023-04-01T04:45:48;98898.78;;;10.83;100.00
30636;BME280;17400;52.392;9.750;2023-04-01T04:48:16;98895.22;;;10.83;100.00
30636;BME280;17400;52.392;9.750;2023-04-01T04:50:47;98897.03;;;10.77;100.00
30636;BME280;17400;52.392;9.750;2023-04-01T04:53:17;98906.47;;;10.75;100.00
30636;BME280;17400;52.392;9.750;2023-04-01T04:55:45;98902.34;;;10.72;100.00
30636;BME280;17400;52.392;9.750;2023-04-01T04:58:15;98906.72;;;10.73;100.00
30636;BME280;17400;52.392;9.750;2023-04-01T05:00:43;98905.66;;;10.74;100.00
30636;BME280;17400;52.392;9.750;2023-04-01T05:03:12;98909.88;;;10.70;100.00
30636;BME280;17400;52.392;9.750;2023-04-01T05:05:48;98911.44;;;10.66;100.00
30636;BME280;17400;52.392;9.750;2023-04-01T05:08:16;98902.59;;;10.71;100.00
30636;BME280;17400;52.392;9.750;2023-04-01T05:10:45;98907.16;;;10.70;100.00
30636;BME280;17400;52.392;9.750;2023-04-01T05:13:14;98913.06;;;10.67;100.00
30636;BME280;17400;52.392;9.750;2023-04-01T05:15:42;98907.66;;;10.67;100.00
30636;BME280;17400;52.392;9.750;2023-04-01T05:18:10;98916.38;;;10.69;100.00
30636;BME280;17400;52.392;9.750;2023-04-01T05:20:37;98913.78;;;10.74;100.00
30636;BME280;17400;52.392;9.750;2023-04-01T05:23:05;98913.78;;;10.74;100.00
30636;BME280;17400;52.392;9.750;2023-04-01T05:25:33;98910.13;;;10.69;100.00
30636;BME280;17400;52.392;9.750;2023-04-01T05:28:01;98912.59;;;10.70;100.00
30636;BME280;17400;52.392;9.750;2023-04-01T05:30:30;98913.78;;;10.74;100.00
30636;BME280;17400;52.392;9.750;2023-04-01T05:32:58;98917.19;;;10.70;100.00
30636;BME280;17400;52.392;9.750;2023-04-01T05:35:26;98917.44;;;10.68;100.00
30636;BME280;17400;52.392;9.750;2023-04-01T05:37:53;98925.81;;;10.66;100.00
30636;BME280;17400;52.392;9.750;2023-04-01T05:40:21;98925.44;;;10.63;100.00
30636;BME280;17400;52.392;9.750;2023-04-01T05:42:49;98923.56;;;10.63;100.00
30636;BME280;17400;52.392;9.750;2023-04-01T05:45:17;98921.09;;;10.62;100.00
30636;BME280;17400;52.392;9.750;2023-04-01T05:47:46;98928.50;;;10.66;100.00
30636;BME280;17400;52.392;9.750;2023-04-01T05:50:14;98931.22;;;10.66;100.00
30636;BME280;17400;52.392;9.750;2023-04-01T05:52:42;98930.38;;;10.66;100.00
30636;BME280;17400;52.392;9.750;2023-04-01T05:55:11;98930.97;;;10.68;100.00
30636;BME280;17400;52.392;9.750;2023-04-01T05:57:39;98936.94;;;10.70;100.00
30636;BME280;17400;52.392;9.750;2023-04-01T06:00:07;98933.91;;;10.66;100.00
30636;BME280;17400;52.392;9.750;2023-04-01T06:02:35;98936.97;;;10.58;100.00
30636;BME280;17400;52.392;9.750;2023-04-01T06:05:14;98935.31;;;10.69;100.00
30636;BME280;17400;52.392;9.750;2023-04-01T06:07:44;98940.25;;;10.72;100.00
30636;BME280;17400;52.392;9.750;2023-04-01T06:10:14;98943.59;;;10.79;100.00
30636;BME280;17400;52.392;9.750;2023-04-01T06:12:51;98939.38;;;10.83;100.00
30636;BME280;17400;52.392;9.750;2023-04-01T06:15:30;98942.09;;;10.83;100.00
30636;BME280;17400;52.392;9.750;2023-04-01T06:18:35;98946.25;;;10.91;100.00
30636;BME280;17400;52.392;9.750;2023-04-01T06:21:19;98946.34;;;10.96;100.00
30636;BME280;17400;52.392;9.750;2023-04-01T06:23:59;98946.13;;;10.98;100.00
30636;BME280;17400;52.392;9.750;2023-04-01T06:26:36;98949.81;;;10.92;100.00
30636;BME280;17400;52.392;9.750;2023-04-01T06:29:24;98955.22;;;10.92;100.00
30636;BME280;17400;52.392;9.750;2023-04-01T06:32:14;98953.69;;;10.96;100.00
30636;BME280;17400;52.392;9.750;2023-04-01T06:35:14;98957.53;;;11.00;100.00
30636;BME280;17400;52.392;9.750;2023-04-01T06:41:01;98957.09;;;10.91;100.00
30636;BME280;17400;52.392;9.750;2023-04-01T06:43:41;98961.00;;;10.95;100.00
30636;BME280;17400;52.392;9.750;2023-04-01T06:46:19;98967.56;;;10.99;100.00
30636;BME280;17400;52.392;9.750;2023-04-01T06:49:12;98962.13;;;10.99;100.00
30636;BME280;17400;52.392;9.750;2023-04-01T06:51:52;98966.72;;;10.99;100.00
30636;BME280;17400;52.392;9.750;2023-04-01T06:54:28;98967.56;;;10.99;100.00
30636;BME280;17400;52.392;9.750;2023-04-01T06:57:02;98966.25;;;11.02;100.00
30636;BME280;17400;52.392;9.750;2023-04-01T06:59:33;98969.63;;;11.09;100.00
30636;BME280;17400;52.392;9.750;2023-04-01T07:02:06;98974.06;;;11.15;100.00
30636;BME280;17400;52.392;9.750;2023-04-01T07:04:46;98973.38;;;11.08;100.00
30636;BME280;17400;52.392;9.750;2023-04-01T07:07:21;98976.97;;;10.97;100.00
30636;BME280;17400;52.392;9.750;2023-04-01T07:09:55;98971.72;;;11.07;100.00
30636;BME280;17400;52.392;9.750;2023-04-01T07:12:33;98984.03;;;10.98;100.00
30636;BME280;17400;52.392;9.750;2023-04-01T07:15:13;98978.59;;;10.98;100.00
30636;BME280;17400;52.392;9.750;2023-04-01T07:17:45;98983.31;;;11.03;100.00
30636;BME280;17400;52.392;9.750;2023-04-01T07:20:20;98982.56;;;11.07;100.00
30636;BME280;17400;52.392;9.750;2023-04-01T07:22:54;98990.22;;;11.10;100.00
30636;BME280;17400;52.392;9.750;2023-04-01T07:25:27;98995.16;;;11.13;100.00
30636;BME280;17400;52.392;9.750;2023-04-01T07:28:01;98998.69;;;11.14;100.00
30636;BME280;17400;52.392;9.750;2023-04-01T07:30:35;98997.13;;;11.18;100.00
30636;BME280;17400;52.392;9.750;2023-04-01T07:33:11;99003.97;;;11.21;100.00
30636;BME280;17400;52.392;9.750;2023-04-01T07:35:46;99003.97;;;11.21;100.00
30636;BME280;17400;52.392;9.750;2023-04-01T07:38:22;99006.97;;;11.24;100.00
30636;BME280;17400;52.392;9.750;2023-04-01T07:41:00;99009.84;;;11.17;100.00
30636;BME280;17400;52.392;9.750;2023-04-01T07:43:41;99013.53;;;11.11;100.00
30636;BME280;17400;52.392;9.750;2023-04-01T07:46:25;99016.41;;;11.22;100.00
30636;BME280;17400;52.392;9.750;2023-04-01T07:49:03;99016.59;;;11.32;100.00
30636;BME280;17400;52.392;9.750;2023-04-01T07:51:39;99015.28;;;11.34;100.00
30636;BME280;17400;52.392;9.750;2023-04-01T07:54:15;99023.75;;;11.38;100.00
30636;BME280;17400;52.392;9.750;2023-04-01T07:56:53;99025.63;;;11.38;100.00
30636;BME280;17400;52.392;9.750;2023-04-01T07:59:28;99027.63;;;11.42;100.00
30636;BME280;17400;52.392;9.750;2023-04-01T08:02:06;99027.03;;;11.40;100.00
30636;BME280;17400;52.392;9.750;2023-04-01T08:04:52;99030.84;;;11.39;100.00
30636;BME280;17400;52.392;9.750;2023-04-01T08:07:24;99038.47;;;11.42;100.00
30636;BME280;17400;52.392;9.750;2023-04-01T08:09:55;99034.59;;;11.38;100.00
30636;BME280;17400;52.392;9.750;2023-04-01T08:12:37;99043.22;;;11.35;100.00
30636;BME280;17400;52.392;9.750;2023-04-01T08:15:15;99042.97;;;11.37;100.00
30636;BME280;17400;52.392;9.750;2023-04-01T08:17:55;99035.75;;;11.42;100.00
30636;BME280;17400;52.392;9.750;2023-04-01T08:20:28;99040.41;;;11.47;100.00
30636;BME280;17400;52.392;9.750;2023-04-01T08:23:00;99044.06;;;11.53;100.00
30636;BME280;17400;52.392;9.750;2023-04-01T08:25:32;99043.25;;;11.69;100.00
30636;BME280;17400;52.392;9.750;2023-04-01T08:28:09;99046.41;;;11.95;100.00
30636;BME280;17400;52.392;9.750;2023-04-01T08:30:41;99052.66;;;12.12;100.00
30636;BME280;17400;52.392;9.750;2023-04-01T08:33:15;99055.94;;;12.14;100.00
30636;BME280;17400;52.392;9.750;2023-04-01T08:35:50;99053.22;;;12.14;100.00
30636;BME280;17400;52.392;9.750;2023-04-01T08:38:26;99051.31;;;12.32;100.00
30636;BME280;17400;52.392;9.750;2023-04-01T08:41:01;99053.59;;;12.40;100.00
30636;BME280;17400;52.392;9.750;2023-04-01T08:43:55;99051.38;;;12.37;100.00
30636;BME280;17400;52.392;9.750;2023-04-01T08:46:47;99054.28;;;12.30;100.00
30636;BME280;17400;52.392;9.750;2023-04-01T08:49:36;99059.22;;;12.16;100.00
30636;BME280;17400;52.392;9.750;2023-04-01T08:52:21;99055.28;;;12.07;100.00
30636;BME280;17400;52.392;9.750;2023-04-01T08:55:21;99064.41;;;12.01;100.00
30636;BME280;17400;52.392;9.750;2023-04-01T08:58:06;99068.59;;;12.09;100.00
30636;BME280;17400;52.392;9.750;2023-04-01T09:00:43;99065.22;;;12.19;100.00
30636;BME280;17400;52.392;9.750;2023-04-01T09:06:25;99059.94;;;12.29;100.00
30636;BME280;17400;52.392;9.750;2023-04-01T09:09:09;99068.22;;;12.39;100.00
30636;BME280;17400;52.392;9.750;2023-04-01T09:12:02;99066.25;;;12.52;100.00
30636;BME280;17400;52.392;9.750;2023-04-01T09:14:48;99067.19;;;12.62;100.00
30636;BME280;17400;52.392;9.750;2023-04-01T09:17:33;99071.09;;;12.49;100.00
30636;BME280;17400;52.392;9.750;2023-04-01T09:20:22;99069.06;;;12.62;100.00
30636;BME280;17400;52.392;9.750;2023-04-01T09:23:09;99071.56;;;12.63;100.00
30636;BME280;17400;52.392;9.750;2023-04-01T09:25:50;99079.38;;;12.60;100.00
30636;BME280;17400;52.392;9.750;2023-04-01T09:28:27;99085.09;;;12.41;100.00
30636;BME280;17400;52.392;9.750;2023-04-01T09:31:18;99084.59;;;12.44;100.00
30636;BME280;17400;52.392;9.750;2023-04-01T09:34:10;99087.44;;;12.55;100.00
30636;BME280;17400;52.392;9.750;2023-04-01T09:36:44;99097.06;;;12.62;100.00
30636;BME280;17400;52.392;9.750;2023-04-01T09:39:31;99090.88;;;12.67;100.00
30636;BME280;17400;52.392;9.750;2023-04-01T09:42:23;99088.59;;;12.59;100.00
30636;BME280;17400;52.392;9.750;2023-04-01T09:44:58;99097.31;;;12.61;100.00
30636;BME280;17400;52.392;9.750;2023-04-01T09:47:43;99095.75;;;12.65;100.00
30636;BME280;17400;52.392;9.750;2023-04-01T09:50:30;99103.41;;;12.51;100.00
30636;BME280;17400;52.392;9.750;2023-04-01T09:53:07;99105.31;;;12.50;100.00
30636;BME280;17400;52.392;9.750;2023-04-01T09:59:11;99110.94;;;12.66;100.00
30636;BME280;17400;52.392;9.750;2023-04-01T10:02:04;99105.94;;;12.58;100.00
30636;BME280;17400;52.392;9.750;2023-04-01T10:05:18;99120.09;;;12.60;100.00
30636;BME280;17400;52.392;9.750;2023-04-01T10:11:15;99122.91;;;12.48;100.00
30636;BME280;17400;52.392;9.750;2023-04-01T10:14:15;99132.38;;;12.45;100.00
30636;BME280;17400;52.392;9.750;2023-04-01T10:17:18;99129.25;;;12.37;100.00
30636;BME280;17400;52.392;9.750;2023-04-01T10:20:30;99125.28;;;12.44;100.00
30636;BME280;17400;52.392;9.750;2023-04-01T10:23:37;99126.78;;;12.35;100.00
30636;BME280;17400;52.392;9.750;2023-04-01T10:26:24;99128.44;;;12.36;100.00
30636;BME280;17400;52.392;9.750;2023-04-01T10:29:45;99135.34;;;12.44;100.00
30636;BME280;17400;52.392;9.750;2023-04-01T10:41:41;99140.25;;;12.30;100.00
30636;BME280;17400;52.392;9.750;2023-04-01T10:44:39;99137.16;;;12.21;100.00
30636;BME280;17400;52.392;9.750;2023-04-01T10:47:48;99145.53;;;12.20;100.00
30636;BME280;17400;52.392;9.750;2023-04-01T10:50:34;99144.47;;;12.21;100.00
30636;BME280;17400;52.392;9.750;2023-04-01T10:56:34;99147.25;;;12.26;100.00
30636;BME280;17400;52.392;9.750;2023-04-01T10:59:32;99161.16;;;12.46;100.00
30636;BME280;17400;52.392;9.750;2023-04-01T11:02:17;99152.50;;;12.49;100.00
30636;BME280;17400;52.392;9.750;2023-04-01T11:05:26;99156.53;;;12.64;100.00
30636;BME280;17400;52.392;9.750;2023-04-01T11:08:39;99153.31;;;12.67;100.00
30636;BME280;17400;52.392;9.750;2023-04-01T11:11:58;99156.03;;;12.67;100.00
30636;BME280;17400;52.392;9.750;2023-04-01T11:17:42;99159.25;;;12.64;100.00
30636;BME280;17400;52.392;9.750;2023-04-01T11:20:39;99170.63;;;12.61;100.00
30636;BME280;17400;52.392;9.750;2023-04-01T11:23:25;99178.84;;;12.32;100.00
30636;BME280;17400;52.392;9.750;2023-04-01T11:26:02;99181.31;;;12.33;100.00
30636;BME280;17400;52.392;9.750;2023-04-01T11:31:54;99176.22;;;12.37;100.00
30636;BME280;17400;52.392;9.750;2023-04-01T11:34:43;99180.06;;;12.41;100.00
30636;BME280;17400;52.392;9.750;2023-04-01T11:37:27;99182.28;;;12.44;100.00
30636;BME280;17400;52.392;9.750;2023-04-01T11:40:06;99187.88;;;12.55;100.00
30636;BME280;17400;52.392;9.750;2023-04-01T11:42:42;99183.34;;;12.60;100.00
30636;BME280;17400;52.392;9.750;2023-04-01T11:45:22;99185.88;;;12.67;100.00
30636;BME280;17400;52.392;9.750;2023-04-01T11:48:02;99195.50;;;12.75;100.00
30636;BME280;17400;52.392;9.750;2023-04-01T11:50:46;99192.28;;;12.78;100.00
30636;BME280;17400;52.392;9.750;2023-04-01T11:53:27;99197.16;;;12.76;100.00
30636;BME280;17400;52.392;9.750;2023-04-01T11:56:15;99202.94;;;12.79;100.00
30636;BME280;17400;52.392;9.750;2023-04-01T11:59:15;99205.47;;;12.86;100.00
30636;BME280;17400;52.392;9.750;2023-04-01T12:01:59;99208.34;;;12.79;100.00
30636;BME280;17400;52.392;9.750;2023-04-01T12:04:41;99211.19;;;12.90;100.00
30636;BME280;17400;52.392;9.750;2023-04-01T12:07:23;99216.41;;;12.91;100.00
30636;BME280;17400;52.392;9.750;2023-04-01T12:09:59;99213.72;;;12.96;100.00
30636;BME280;17400;52.392;9.750;2023-04-01T12:12:36;99212.66;;;12.97;100.00
30636;BME280;17400;52.392;9.750;2023-04-01T12:15:30;99227.00;;;12.93;100.00
30636;BME280;17400;52.392;9.750;2023-04-01T12:18:12;99221.44;;;12.82;100.00
30636;BME280;17400;52.392;9.750;2023-04-01T12:20:49;99224.56;;;12.91;100.00
30636;BME280;17400;52.392;9.750;2023-04-01T12:23:39;99225.00;;;13.05;100.00
30636;BME280;17400;52.392;9.750;2023-04-01T12:26:29;99228.50;;;13.00;100.00
30636;BME280;17400;52.392;9.750;2023-04-01T12:29:12;99225.91;;;13.11;100.00
30636;BME280;17400;52.392;9.750;2023-04-01T12:31:53;99227.31;;;13.36;100.00
30636;BME280;17400;52.392;9.750;2023-04-01T12:34:48;99226.16;;;13.48;100.00
30636;BME280;17400;52.392;9.750;2023-04-01T12:37:34;99229.75;;;13.54;100.00
30636;BME280;17400;52.392;9.750;2023-04-01T12:40:20;99229.31;;;13.62;100.00
30636;BME280;17400;52.392;9.750;2023-04-01T12:43:02;99237.66;;;13.56;100.00
30636;BME280;17400;52.392;9.750;2023-04-01T12:45:34;99231.16;;;13.57;100.00
30636;BME280;17400;52.392;9.750;2023-04-01T12:48:19;99238.56;;;13.61;100.00
30636;BME280;17400;52.392;9.750;2023-04-01T12:51:10;99245.19;;;13.71;100.00
30636;BME280;17400;52.392;9.750;2023-04-01T12:53:58;99245.88;;;13.61;100.00
30636;BME280;17400;52.392;9.750;2023-04-01T12:56:39;99253.59;;;13.47;100.00
30636;BME280;17400;52.392;9.750;2023-04-01T12:59:42;99252.56;;;13.53;100.00
30636;BME280;17400;52.392;9.750;2023-04-01T13:02:13;99253.22;;;13.60;100.00
30636;BME280;17400;52.392;9.750;2023-04-01T13:05:20;99260.06;;;13.63;100.00
30636;BME280;17400;52.392;9.750;2023-04-01T13:08:10;99260.34;;;13.66;100.00
30636;BME280;17400;52.392;9.750;2023-04-01T13:11:05;99268.00;;;13.47;100.00
30636;BME280;17400;52.392;9.750;2023-04-01T13:13:58;99273.97;;;13.44;100.00
30636;BME280;17400;52.392;9.750;2023-04-01T13:16:35;99278.06;;;13.47;100.00
30636;BME280;17400;52.392;9.750;2023-04-01T13:19:08;99282.13;;;13.27;100.00
30636;BME280;17400;52.392;9.750;2023-04-01T13:21:44;99285.44;;;13.12;100.00
30636;BME280;17400;52.392;9.750;2023-04-01T13:24:28;99285.66;;;13.11;100.00
30636;BME280;17400;52.392;9.750;2023-04-01T13:27:04;99289.97;;;12.90;100.00
30636;BME280;17400;52.392;9.750;2023-04-01T13:29:36;99298.88;;;13.02;100.00
30636;BME280;17400;52.392;9.750;2023-04-01T13:32:19;99299.06;;;13.17;100.00
30636;BME280;17400;52.392;9.750;2023-04-01T13:35:20;99297.50;;;13.39;100.00
30636;BME280;17400;52.392;9.750;2023-04-01T13:38:00;99298.69;;;13.43;100.00
30636;BME280;17400;52.392;9.750;2023-04-01T13:40:47;99304.09;;;13.26;100.00
30636;BME280;17400;52.392;9.750;2023-04-01T13:43:32;99302.97;;;13.22;100.00
30636;BME280;17400;52.392;9.750;2023-04-01T13:46:32;99317.97;;;13.24;100.00
30636;BME280;17400;52.392;9.750;2023-04-01T13:49:34;99331.38;;;12.97;100.00
30636;BME280;17400;52.392;9.750;2023-04-01T13:52:21;99329.78;;;12.67;100.00
30636;BME280;17400;52.392;9.750;2023-04-01T13:55:09;99350.41;;;12.51;100.00
30636;BME280;17400;52.392;9.750;2023-04-01T13:57:52;99346.81;;;12.33;100.00
30636;BME280;17400;52.392;9.750;2023-04-01T14:00:37;99342.53;;;12.09;100.00
30636;BME280;17400;52.392;9.750;2023-04-01T14:03:24;99355.88;;;12.10;100.00
30636;BME280;17400;52.392;9.750;2023-04-01T14:06:16;99362.28;;;12.04;100.00
30636;BME280;17400;52.392;9.750;2023-04-01T14:09:01;99359.44;;;11.99;100.00
30636;BME280;17400;52.392;9.750;2023-04-01T14:11:36;99368.16;;;12.01;100.00
30636;BME280;17400;52.392;9.750;2023-04-01T14:14:17;99373.81;;;11.99;100.00
30636;BME280;17400;52.392;9.750;2023-04-01T14:17:03;99378.66;;;11.86;100.00